Time;durP1;ratioP1;P1;durP2;ratioP2;P2;SDS_P1;SDS_P2;PMS_P1;PMS_P2;Temp;Humidity;BMP_temperature;BMP_pressure;BME280_temperature;BME280_humidity;BME280_pressure;Samples;Min_cycle;Max_cycle;Signal;HPM_P1;HPM_P2
2021/10/07 00:01:26;;;;;;;0.60;0.60;;;9.30;99.90;9.20;97085.00;;;;5086279;28;20625;-71
2021/10/07 00:04:15;;;;;;;0.40;0.40;;;9.30;99.90;9.10;97078.00;;;;5087792;28;20207;-69
2021/10/07 00:07:05;;;;;;;0.43;0.43;;;9.30;99.90;9.20;97090.00;;;;5087132;28;20210;-69
2021/10/07 00:09:54;;;;;;;1.57;0.40;;;9.30;99.90;9.30;97082.00;;;;5086951;28;20211;-70
2021/10/07 00:12:42;;;;;;;0.53;0.40;;;9.30;99.90;9.30;97087.00;;;;5088522;28;20227;-69
2021/10/07 00:15:34;;;;;;;0.33;0.33;;;9.30;99.90;9.20;97088.00;;;;5075213;28;20735;-69
2021/10/07 00:18:24;;;;;;;0.30;0.30;;;9.30;99.90;9.20;97083.00;;;;5075226;28;20264;-69
2021/10/07 00:21:16;;;;;;;0.47;0.47;;;9.30;99.90;9.30;97102.00;;;;5086841;28;20231;-70
2021/10/07 00:24:08;;;;;;;0.40;0.40;;;9.30;99.90;9.30;97090.00;;;;5087033;28;20206;-70
2021/10/07 00:26:58;;;;;;;0.47;0.47;;;9.40;99.90;9.20;97083.00;;;;5075029;28;20678;-70
2021/10/07 00:29:47;;;;;;;0.87;0.40;;;9.40;99.90;9.00;97090.00;;;;5086240;28;20601;-70
2021/10/07 00:32:40;;;;;;;0.33;0.33;;;9.30;99.90;9.10;97087.00;;;;5087348;28;20234;-71
2021/10/07 00:35:44;;;;;;;0.93;0.50;;;9.30;99.90;9.00;97099.00;;;;5086730;28;20203;-70
2021/10/07 00:41:43;;;;;;;0.30;0.30;;;9.30;99.90;9.10;97095.00;;;;5085565;28;20227;-70
2021/10/07 00:44:33;;;;;;;0.40;0.40;;;9.30;99.90;9.10;97098.00;;;;5087610;28;20204;-70
2021/10/07 00:47:22;;;;;;;0.30;0.27;;;9.30;99.90;9.10;97093.00;;;;5086709;28;20204;-70
2021/10/07 00:50:11;;;;;;;0.37;0.37;;;9.30;99.90;9.00;97078.00;;;;5085853;28;20210;-70
2021/10/07 00:53:01;;;;;;;0.30;0.30;;;9.20;99.90;9.00;97097.00;;;;5086871;28;20219;-70
2021/10/07 00:55:50;;;;;;;0.40;0.40;;;9.20;99.90;8.90;97074.00;;;;5086597;28;20211;-69
2021/10/07 00:58:39;;;;;;;1.07;0.70;;;9.20;99.90;9.00;97078.00;;;;5087329;28;20203;-71
2021/10/07 01:01:29;;;;;;;0.47;0.47;;;9.20;99.90;8.90;97078.00;;;;5085767;28;20231;-70
2021/10/07 01:04:18;;;;;;;0.40;0.40;;;9.10;99.90;9.00;97068.00;;;;5087928;28;20209;-70
2021/10/07 01:07:08;;;;;;;0.27;0.27;;;9.10;99.90;9.00;97079.00;;;;5086452;28;20203;-70
2021/10/07 01:09:58;;;;;;;0.40;0.30;;;9.10;99.90;8.90;97080.00;;;;5085883;28;20345;-69
2021/10/07 01:12:47;;;;;;;2.10;0.50;;;9.10;99.90;8.90;97069.00;;;;5086547;28;20225;-70
2021/10/07 01:15:36;;;;;;;0.30;0.30;;;9.10;99.90;8.80;97075.00;;;;5085924;28;20207;-70
2021/10/07 01:18:25;;;;;;;0.40;0.40;;;9.10;99.90;8.90;97072.00;;;;5072743;28;20210;-69
2021/10/07 01:21:18;;;;;;;0.57;0.40;;;9.10;99.90;9.00;97085.00;;;;5084759;28;20736;-70
2021/10/07 01:24:07;;;;;;;0.53;0.53;;;9.10;99.90;8.90;97083.00;;;;5087244;28;20210;-70
2021/10/07 01:26:55;;;;;;;0.40;0.40;;;9.10;99.90;8.90;97082.00;;;;5086446;28;20245;-69
2021/10/07 01:29:45;;;;;;;2.10;0.63;;;9.10;99.90;8.90;97075.00;;;;5085665;28;20210;-69
2021/10/07 01:32:35;;;;;;;0.30;0.30;;;9.00;99.90;8.80;97077.00;;;;5086835;28;20238;-70
2021/10/07 01:35:25;;;;;;;0.40;0.40;;;9.00;99.90;8.60;97068.00;;;;5085523;28;20670;-70
2021/10/07 01:38:15;;;;;;;0.40;0.40;;;9.00;99.90;8.70;97073.00;;;;5073314;28;20450;-69
2021/10/07 01:41:04;;;;;;;1.13;0.30;;;8.90;99.90;8.70;97071.00;;;;5084728;28;20222;-69
2021/10/07 01:43:55;;;;;;;0.30;0.30;;;8.90;99.90;8.80;97068.00;;;;5086543;28;20675;-69
2021/10/07 01:46:44;;;;;;;0.50;0.40;;;8.90;99.90;8.80;97075.00;;;;5085956;28;20211;-69
2021/10/07 01:49:33;;;;;;;0.93;0.70;;;8.90;99.90;8.80;97080.00;;;;5079225;28;20195;-70
2021/10/07 01:52:22;;;;;;;0.60;0.50;;;8.90;99.90;8.70;97087.00;;;;5084584;28;20219;-71
2021/10/07 01:55:12;;;;;;;0.40;0.40;;;8.90;99.90;8.80;97076.00;;;;5085937;28;20203;-70
2021/10/07 01:58:01;;;;;;;2.97;0.80;;;8.90;99.90;8.80;97083.00;;;;5076007;28;20207;-69
2021/10/07 02:00:50;;;;;;;0.30;0.30;;;8.90;99.90;8.80;97093.00;;;;5086124;28;20219;-69
2021/10/07 02:03:39;;;;;;;0.37;0.33;;;8.90;99.90;8.70;97101.00;;;;5087219;28;20203;-70
2021/10/07 02:06:28;;;;;;;1.30;0.50;;;8.90;99.90;8.70;97090.00;;;;5086216;28;20709;-69
2021/10/07 02:09:17;;;;;;;1.47;0.53;;;8.90;99.90;8.80;97096.00;;;;5085891;28;20603;-70
2021/10/07 02:12:09;;;;;;;0.60;0.50;;;8.90;99.90;8.70;97092.00;;;;5086201;28;20222;-70
2021/10/07 02:14:57;;;;;;;0.50;0.40;;;8.90;99.90;8.70;97091.00;;;;5087009;28;20206;-69
2021/10/07 02:17:47;;;;;;;0.93;0.67;;;8.90;99.90;8.80;97093.00;;;;5068710;28;20214;-69
2021/10/07 02:20:36;;;;;;;0.50;0.40;;;8.90;99.90;8.70;97088.00;;;;5069865;28;20215;-69
2021/10/07 02:23:24;;;;;;;0.60;0.60;;;8.90;99.90;8.70;97090.00;;;;5086577;28;20578;-68
2021/10/07 02:26:13;;;;;;;0.60;0.60;;;8.80;99.90;8.70;97092.00;;;;5086564;28;20278;-70
2021/10/07 02:29:05;;;;;;;0.40;0.40;;;8.80;99.90;8.60;97102.00;;;;5085302;28;20208;-70
2021/10/07 02:31:54;;;;;;;1.43;0.60;;;8.80;99.90;8.70;97098.00;;;;5074482;28;20223;-69
2021/10/07 02:34:42;;;;;;;0.77;0.43;;;8.80;99.90;8.70;97103.00;;;;5085643;28;20600;-69
2021/10/07 02:37:31;;;;;;;0.43;0.43;;;8.80;99.90;8.70;97107.00;;;;5084136;28;20215;-69
2021/10/07 02:40:21;;;;;;;0.50;0.50;;;8.80;99.90;8.70;97112.00;;;;5081945;28;20238;-69
2021/10/07 02:43:09;;;;;;;1.57;1.00;;;8.80;99.90;8.70;97117.00;;;;5085913;28;20215;-68
2021/10/07 02:46:00;;;;;;;0.80;0.53;;;8.80;99.90;8.60;97106.00;;;;5084714;28;20199;-69
2021/10/07 02:48:49;;;;;;;0.80;0.47;;;8.80;99.90;8.70;97118.00;;;;5084753;28;20271;-68
2021/10/07 02:51:38;;;;;;;2.20;0.40;;;8.80;99.90;8.60;97118.00;;;;5072696;28;20230;-68
2021/10/07 02:54:27;;;;;;;0.50;0.50;;;8.80;99.90;8.50;97125.00;;;;5083409;28;20218;-69
2021/10/07 02:57:16;;;;;;;1.17;0.70;;;8.80;99.90;8.50;97107.00;;;;5086112;28;20203;-68
2021/10/07 03:00:07;;;;;;;1.53;0.70;;;8.80;99.90;8.40;97102.00;;;;5088523;28;20207;-68
2021/10/07 03:02:57;;;;;;;0.77;0.40;;;8.70;99.90;8.60;97117.00;;;;5089816;28;20223;-69
2021/10/07 03:05:46;;;;;;;0.50;0.50;;;8.70;99.90;8.60;97115.00;;;;5089191;28;20211;-68
2021/10/07 03:08:35;;;;;;;3.03;0.60;;;8.70;99.90;8.70;97118.00;;;;5089120;28;20203;-68
2021/10/07 03:11:24;;;;;;;1.03;0.60;;;8.80;99.90;8.70;97117.00;;;;5086748;28;20219;-68
2021/10/07 03:14:13;;;;;;;0.80;0.47;;;8.80;99.90;8.70;97118.00;;;;5089153;28;20208;-70
2021/10/07 03:17:02;;;;;;;2.47;0.67;;;8.80;99.90;8.70;97122.00;;;;5082383;28;21057;-68
2021/10/07 03:19:52;;;;;;;1.00;0.80;;;8.80;99.90;8.70;97130.00;;;;5084263;28;20199;-68
2021/10/07 03:22:41;;;;;;;3.00;0.67;;;8.80;99.90;8.60;97141.00;;;;5088554;28;20227;-68
2021/10/07 03:25:30;;;;;;;3.80;0.90;;;8.80;99.90;8.70;97156.00;;;;5088674;28;20206;-69
2021/10/07 03:28:19;;;;;;;0.70;0.47;;;8.80;99.90;8.60;97144.00;;;;5088650;28;20207;-68
2021/10/07 03:31:07;;;;;;;0.37;0.37;;;8.80;99.90;8.60;97148.00;;;;5087413;28;20212;-69
2021/10/07 03:33:56;;;;;;;0.47;0.47;;;8.80;99.90;8.60;97153.00;;;;5088327;28;20218;-68
2021/10/07 03:36:47;;;;;;;0.70;0.70;;;8.80;99.90;8.60;97153.00;;;;5087374;28;20206;-68
2021/10/07 03:39:37;;;;;;;1.07;0.70;;;8.70;99.90;8.60;97160.00;;;;5087692;28;20239;-69
2021/10/07 03:42:26;;;;;;;0.93;0.80;;;8.70;99.90;8.60;97157.00;;;;5088014;28;20690;-69
2021/10/07 03:45:15;;;;;;;1.50;0.70;;;8.70;99.90;8.60;97153.00;;;;5088908;28;20199;-68
2021/10/07 03:48:05;;;;;;;0.63;0.50;;;8.70;99.90;8.50;97147.00;;;;5055231;28;20211;-69
2021/10/07 03:50:54;;;;;;;1.87;0.50;;;8.80;99.90;8.60;97155.00;;;;5056043;28;20207;-69
2021/10/07 03:53:44;;;;;;;0.50;0.50;;;8.70;99.90;8.60;97153.00;;;;5062341;28;20204;-69
2021/10/07 03:56:33;;;;;;;0.67;0.60;;;8.70;99.90;8.60;97158.00;;;;5058758;28;20226;-69
2021/10/07 03:59:22;;;;;;;1.10;0.67;;;8.70;99.90;8.50;97155.00;;;;5067578;28;20204;-70
2021/10/07 04:02:11;;;;;;;2.57;0.70;;;8.70;99.90;8.60;97169.00;;;;5066147;28;20224;-68
2021/10/07 04:05:00;;;;;;;1.37;0.40;;;8.70;99.90;8.60;97165.00;;;;5062549;28;20211;-70
2021/10/07 04:07:49;;;;;;;0.70;0.70;;;8.70;99.90;8.60;97164.00;;;;5066112;28;20204;-69
2021/10/07 04:10:39;;;;;;;4.73;0.70;;;8.70;99.90;8.60;97166.00;;;;5066410;28;20212;-69
2021/10/07 04:13:28;;;;;;;0.73;0.53;;;8.70;99.90;8.50;97169.00;;;;5068258;28;20226;-69
2021/10/07 04:16:17;;;;;;;0.60;0.43;;;8.70;99.90;8.60;97175.00;;;;5067770;28;20203;-69
2021/10/07 04:19:06;;;;;;;4.77;1.43;;;8.70;99.90;8.60;97173.00;;;;5062673;28;20594;-70
2021/10/07 04:21:54;;;;;;;1.07;0.60;;;8.70;99.90;8.50;97164.00;;;;5062047;28;20302;-69
2021/10/07 04:24:43;;;;;;;1.07;0.60;;;8.70;99.90;8.50;97157.00;;;;5067845;28;20200;-69
2021/10/07 04:27:34;;;;;;;0.37;0.37;;;8.70;99.90;8.60;97165.00;;;;5068468;28;20208;-70
2021/10/07 04:30:23;;;;;;;1.43;1.20;;;8.70;99.90;8.60;97161.00;;;;5065086;28;20207;-70
2021/10/07 04:33:13;;;;;;;2.20;0.60;;;8.70;99.90;8.60;97163.00;;;;5068789;28;20698;-69
2021/10/07 04:36:01;;;;;;;1.80;0.77;;;8.70;99.90;8.60;97164.00;;;;5065363;28;20214;-70
2021/10/07 04:38:51;;;;;;;1.10;0.50;;;8.70;99.90;8.60;97163.00;;;;5061178;28;20207;-69
2021/10/07 04:41:40;;;;;;;0.53;0.53;;;8.70;99.90;8.50;97160.00;;;;5064300;28;20245;-69
2021/10/07 04:44:30;;;;;;;0.90;0.57;;;8.80;99.90;8.50;97158.00;;;;5067108;28;20207;-69
2021/10/07 04:47:19;;;;;;;0.47;0.47;;;8.70;99.90;8.60;97162.00;;;;5066570;28;20208;-69
2021/10/07 04:50:09;;;;;;;0.50;0.50;;;8.70;99.90;8.60;97165.00;;;;5067278;28;20227;-69
2021/10/07 04:52:58;;;;;;;0.40;0.40;;;8.70;99.90;8.50;97175.00;;;;5067705;28;20234;-70
2021/10/07 04:55:46;;;;;;;0.40;0.37;;;8.70;99.90;8.50;97173.00;;;;5062778;28;20214;-69
2021/10/07 04:58:35;;;;;;;0.20;0.20;;;8.70;99.90;8.50;97184.00;;;;5060267;28;20208;-69
2021/10/07 05:01:25;;;;;;;0.83;0.70;;;8.70;99.90;8.50;97178.00;;;;5055428;28;20228;-70
2021/10/07 05:04:15;;;;;;;1.03;0.37;;;8.70;99.90;8.40;97182.00;;;;5061802;28;20220;-70
2021/10/07 05:07:05;;;;;;;1.90;0.20;;;8.70;99.90;8.40;97186.00;;;;5067659;28;20588;-69
2021/10/07 05:09:53;;;;;;;0.40;0.40;;;8.70;99.90;8.50;97185.00;;;;5059318;28;20218;-69
2021/10/07 05:12:42;;;;;;;1.27;0.47;;;8.70;99.90;8.40;97192.00;;;;5066528;28;20222;-71
2021/10/07 05:15:31;;;;;;;0.40;0.40;;;8.70;99.90;8.40;97197.00;;;;5066686;28;20196;-69
2021/10/07 05:18:21;;;;;;;0.70;0.57;;;8.60;99.90;8.40;97191.00;;;;5053661;28;20211;-69
2021/10/07 05:21:10;;;;;;;0.43;0.43;;;8.60;99.90;8.50;97198.00;;;;5065847;28;20224;-69
2021/10/07 05:23:59;;;;;;;0.30;0.30;;;8.60;99.90;8.50;97204.00;;;;5068017;28;20231;-68
2021/10/07 05:26:48;;;;;;;0.50;0.40;;;8.70;99.90;8.50;97206.00;;;;5066894;28;20683;-69
2021/10/07 05:29:37;;;;;;;0.70;0.47;;;8.70;99.90;8.50;97219.00;;;;5066330;28;20710;-70
2021/10/07 05:32:26;;;;;;;0.23;0.23;;;8.70;99.90;8.50;97226.00;;;;5066228;28;20223;-69
2021/10/07 05:35:16;;;;;;;2.30;0.53;;;8.70;99.90;8.50;97228.00;;;;5074980;28;20275;-70
2021/10/07 05:38:05;;;;;;;0.43;0.30;;;8.70;99.90;8.50;97229.00;;;;5053731;28;20196;-70
2021/10/07 05:40:54;;;;;;;0.30;0.30;;;8.70;99.90;8.60;97236.00;;;;5086745;28;20650;-69
2021/10/07 05:43:43;;;;;;;0.40;0.40;;;8.70;99.90;8.60;97246.00;;;;5088365;28;20235;-70
2021/10/07 05:46:32;;;;;;;0.43;0.30;;;8.70;99.90;8.50;97238.00;;;;5086446;28;20222;-68
2021/10/07 05:49:22;;;;;;;0.53;0.40;;;8.70;99.90;8.60;97238.00;;;;5086710;28;20206;-68
2021/10/07 05:52:12;;;;;;;3.17;0.80;;;8.70;99.90;8.60;97244.00;;;;5085910;28;20227;-69
2021/10/07 05:55:01;;;;;;;0.73;0.63;;;8.70;99.90;8.60;97252.00;;;;5086788;28;20203;-69
2021/10/07 05:57:50;;;;;;;0.70;0.40;;;8.70;99.90;8.70;97243.00;;;;5087202;28;20211;-70
2021/10/07 06:00:39;;;;;;;0.33;0.33;;;8.80;99.90;8.60;97237.00;;;;5085344;28;20207;-69
2021/10/07 06:03:28;;;;;;;0.93;0.63;;;8.80;99.90;8.60;97249.00;;;;5086635;28;20230;-70
2021/10/07 06:06:17;;;;;;;1.37;0.50;;;8.80;99.90;8.60;97248.00;;;;5086030;28;20203;-69
2021/10/07 06:09:08;;;;;;;1.97;0.80;;;8.80;99.90;8.70;97242.00;;;;5084101;28;20203;-69
2021/10/07 06:11:57;;;;;;;0.87;0.50;;;8.80;99.90;8.80;97246.00;;;;5085421;28;20219;-69
2021/10/07 06:14:45;;;;;;;0.50;0.50;;;8.90;99.90;8.80;97257.00;;;;5086061;28;20296;-69
2021/10/07 06:17:35;;;;;;;0.50;0.50;;;8.90;99.90;8.80;97260.00;;;;5076638;28;20203;-69
2021/10/07 06:20:30;;;;;;;1.30;1.20;;;9.00;99.90;8.90;97264.00;;;;5083337;28;20203;-67
2021/10/07 06:23:19;;;;;;;0.97;0.60;;;8.90;99.90;9.00;97264.00;;;;5080400;28;20227;-69
2021/10/07 06:26:10;;;;;;;3.17;0.80;;;9.00;99.90;9.00;97265.00;;;;5082967;28;20203;-69
2021/10/07 06:28:59;;;;;;;1.47;0.80;;;9.10;99.90;9.10;97274.00;;;;5078309;28;20686;-69
2021/10/07 06:31:48;;;;;;;0.90;0.73;;;9.10;99.90;9.00;97263.00;;;;5080426;28;20242;-68
2021/10/07 06:34:37;;;;;;;2.03;1.10;;;9.10;99.90;9.10;97266.00;;;;5080825;28;20204;-70
2021/10/07 06:37:26;;;;;;;1.00;0.90;;;9.10;99.90;9.10;97257.00;;;;5082894;28;20208;-69
2021/10/07 06:40:15;;;;;;;0.80;0.50;;;9.20;99.90;9.00;97269.00;;;;5078562;28;20965;-69
2021/10/07 06:43:05;;;;;;;0.57;0.57;;;9.20;99.90;8.80;97271.00;;;;5078795;28;20235;-69
2021/10/07 06:45:54;;;;;;;1.30;0.80;;;9.20;99.90;9.10;97279.00;;;;5083053;28;20712;-69
2021/10/07 06:48:43;;;;;;;1.03;0.70;;;9.20;99.90;9.10;97278.00;;;;5085920;28;20614;-70
2021/10/07 06:51:32;;;;;;;0.60;0.60;;;9.20;99.90;9.20;97282.00;;;;5084714;28;20227;-69
2021/10/07 06:54:21;;;;;;;0.97;0.57;;;9.30;99.90;9.20;97281.00;;;;5085381;28;20200;-69
2021/10/07 06:57:10;;;;;;;0.57;0.57;;;9.30;99.90;9.10;97286.00;;;;5081802;28;20211;-69
2021/10/07 07:00:00;;;;;;;0.60;0.60;;;9.30;99.90;9.30;97294.00;;;;5069236;28;20717;-68
2021/10/07 07:02:49;;;;;;;0.70;0.60;;;9.30;99.90;9.20;97294.00;;;;5083249;28;20250;-68
2021/10/07 07:05:38;;;;;;;0.60;0.47;;;9.30;99.90;9.20;97289.00;;;;5084658;28;20238;-68
2021/10/07 07:08:26;;;;;;;0.70;0.60;;;9.30;99.90;9.10;97292.00;;;;5085004;28;20218;-67
2021/10/07 07:11:16;;;;;;;0.30;0.30;;;9.30;99.90;9.20;97301.00;;;;5083941;28;20227;-71
2021/10/07 07:14:06;;;;;;;1.50;0.57;;;9.30;99.90;9.20;97305.00;;;;5074941;28;20283;-68
2021/10/07 07:16:56;;;;;;;0.60;0.50;;;9.30;99.90;9.20;97309.00;;;;5079930;28;20694;-68
2021/10/07 07:19:52;;;;;;;0.70;0.47;;;9.30;99.90;9.20;97310.00;;;;5080496;28;20195;-68
2021/10/07 07:22:42;;;;;;;0.40;0.40;;;9.30;99.90;9.10;97308.00;;;;5085216;28;20223;-67
2021/10/07 07:25:32;;;;;;;0.30;0.30;;;9.30;99.90;9.10;97308.00;;;;5085364;28;20210;-69
2021/10/07 07:28:21;;;;;;;0.67;0.67;;;9.30;99.90;9.20;97318.00;;;;5082863;28;20211;-70
2021/10/07 07:31:10;;;;;;;0.50;0.47;;;9.30;99.90;9.30;97323.00;;;;5084694;28;20226;-69
2021/10/07 07:34:01;;;;;;;0.40;0.40;;;9.30;99.90;9.30;97326.00;;;;5077033;28;20199;-70
2021/10/07 07:36:50;;;;;;;0.60;0.33;;;9.40;99.90;9.30;97324.00;;;;5076927;28;20214;-70
2021/10/07 07:39:39;;;;;;;0.43;0.40;;;9.40;99.90;9.40;97338.00;;;;5084420;28;20211;-66
2021/10/07 07:42:28;;;;;;;1.63;1.50;;;9.40;99.90;9.40;97343.00;;;;5084698;28;20216;-69
2021/10/07 07:45:17;;;;;;;1.63;0.80;;;9.50;99.90;9.40;97341.00;;;;5089331;28;20238;-70
2021/10/07 07:48:15;;;;;;;2.00;1.73;;;9.50;99.90;9.30;97334.00;;;;5078570;28;21014;-69
2021/10/07 07:51:06;;;;;;;1.10;1.00;;;9.50;99.90;9.60;97356.00;;;;5086709;28;20207;-70
2021/10/07 07:53:55;;;;;;;1.70;0.60;;;9.50;99.90;9.60;97361.00;;;;5085103;28;20215;-70
2021/10/07 07:56:44;;;;;;;0.80;0.40;;;9.50;99.90;9.60;97360.00;;;;5088139;28;20203;-68
2021/10/07 07:59:33;;;;;;;0.63;0.63;;;9.60;99.90;9.50;97373.00;;;;5086606;28;20209;-68
2021/10/07 08:02:22;;;;;;;1.93;0.53;;;9.60;99.90;9.20;97356.00;;;;5088507;28;20264;-68
2021/10/07 08:05:11;;;;;;;0.70;0.70;;;9.60;99.90;9.30;97353.00;;;;5088418;28;20222;-69
2021/10/07 08:08:01;;;;;;;0.73;0.37;;;9.60;99.90;9.50;97358.00;;;;5081461;28;20203;-69
2021/10/07 08:10:51;;;;;;;0.40;0.40;;;9.50;99.90;9.60;97358.00;;;;5080419;28;20211;-66
2021/10/07 08:13:41;;;;;;;0.30;0.30;;;9.60;99.90;9.60;97365.00;;;;5088935;28;20206;-69
2021/10/07 08:16:31;;;;;;;0.80;0.40;;;9.60;99.90;9.50;97360.00;;;;5083791;28;20199;-69
2021/10/07 08:19:20;;;;;;;1.50;0.47;;;9.60;99.90;9.60;97366.00;;;;5079955;28;20211;-69
2021/10/07 08:22:10;;;;;;;0.50;0.50;;;9.70;99.90;9.50;97358.00;;;;5087393;28;20223;-69
2021/10/07 08:25:00;;;;;;;0.60;0.50;;;9.70;99.90;9.70;97359.00;;;;5087341;28;21247;-69
2021/10/07 08:27:49;;;;;;;0.40;0.40;;;9.70;99.90;9.60;97365.00;;;;5088140;28;20211;-69
2021/10/07 08:30:38;;;;;;;0.63;0.50;;;9.70;99.90;9.70;97366.00;;;;5086091;28;20203;-69
2021/10/07 08:33:27;;;;;;;0.53;0.40;;;9.70;99.90;9.60;97373.00;;;;5087670;28;20206;-69
2021/10/07 08:36:16;;;;;;;3.43;0.83;;;9.70;99.90;9.60;97359.00;;;;5085626;28;20203;-69
2021/10/07 08:39:05;;;;;;;1.50;0.50;;;9.70;99.90;9.70;97366.00;;;;5087452;28;20204;-69
2021/10/07 08:41:56;;;;;;;0.70;0.33;;;9.70;99.90;9.60;97371.00;;;;5082279;28;20232;-69
2021/10/07 08:44:45;;;;;;;0.43;0.43;;;9.70;99.90;9.50;97361.00;;;;5084712;28;20230;-68
2021/10/07 08:47:37;;;;;;;0.50;0.40;;;9.70;99.90;9.40;97362.00;;;;5085958;28;20210;-69
2021/10/07 08:50:27;;;;;;;0.53;0.53;;;9.70;99.90;9.40;97374.00;;;;5085833;28;20200;-69
2021/10/07 08:53:17;;;;;;;0.60;0.30;;;9.70;99.90;9.50;97363.00;;;;5086298;28;20198;-69
2021/10/07 08:56:06;;;;;;;0.73;0.47;;;9.60;99.90;9.60;97357.00;;;;5075357;28;20203;-69
2021/10/07 08:58:57;;;;;;;3.43;0.80;;;9.60;99.90;9.20;97356.00;;;;5088362;28;20212;-69
2021/10/07 09:01:48;;;;;;;0.53;0.53;;;9.60;99.90;9.30;97359.00;;;;5087031;28;20223;-69
2021/10/07 09:04:39;;;;;;;0.53;0.47;;;9.60;99.90;9.10;97352.00;;;;5086835;28;20223;-67
2021/10/07 09:07:27;;;;;;;0.37;0.37;;;9.50;99.90;9.30;97363.00;;;;5088356;28;20210;-67
2021/10/07 09:10:18;;;;;;;0.73;0.50;;;9.50;99.90;9.60;97352.00;;;;5086934;28;20571;-68
2021/10/07 09:13:10;;;;;;;0.43;0.40;;;9.50;99.90;9.80;97347.00;;;;5081218;28;20317;-69
2021/10/07 09:16:02;;;;;;;1.43;0.90;;;9.60;99.90;9.70;97351.00;;;;5076931;28;20203;-69
2021/10/07 09:18:51;;;;;;;2.20;1.63;;;9.70;99.90;9.80;97354.00;;;;5081967;28;20682;-69
2021/10/07 09:21:42;;;;;;;0.80;0.80;;;9.70;99.90;9.20;97343.00;;;;5084602;28;20274;-69
2021/10/07 09:24:35;;;;;;;0.50;0.50;;;9.70;99.90;9.20;97350.00;;;;5085195;28;20380;-69
2021/10/07 09:27:26;;;;;;;0.30;0.30;;;9.60;99.90;9.60;97349.00;;;;5073898;28;20204;-70
2021/10/07 09:30:15;;;;;;;1.30;0.53;;;9.60;99.90;9.70;97344.00;;;;5080765;28;20195;-69
2021/10/07 09:33:05;;;;;;;3.70;0.50;;;9.70;99.90;9.80;97343.00;;;;5082661;28;20227;-69
2021/10/07 09:36:13;;;;;;;0.83;0.50;;;9.80;99.90;9.90;97338.00;;;;5071901;28;20203;-70
2021/10/07 09:39:05;;;;;;;0.30;0.30;;;9.90;99.90;9.80;97338.00;;;;5086102;28;20199;-70
2021/10/07 09:42:05;;;;;;;0.47;0.47;;;9.90;99.90;9.70;97342.00;;;;5076659;28;20223;-69
2021/10/07 09:45:10;;;;;;;0.50;0.30;;;9.90;99.90;9.80;97337.00;;;;5085888;28;20762;-70
2021/10/07 09:48:01;;;;;;;0.40;0.30;;;9.90;99.90;9.90;97335.00;;;;5087659;28;20202;-69
2021/10/07 09:50:52;;;;;;;0.90;0.47;;;9.90;99.90;10.00;97345.00;;;;5071918;28;20195;-70
2021/10/07 09:53:45;;;;;;;0.50;0.50;;;9.80;99.90;10.20;97349.00;;;;5087410;28;20569;-69
2021/10/07 09:56:34;;;;;;;0.80;0.60;;;10.00;99.90;10.20;97359.00;;;;5079308;28;20195;-69
2021/10/07 09:59:24;;;;;;;1.40;0.70;;;10.10;99.90;10.30;97351.00;;;;5085614;28;20203;-70
2021/10/07 10:02:13;;;;;;;0.50;0.47;;;10.10;99.90;10.10;97354.00;;;;5086341;28;20211;-69
2021/10/07 10:05:02;;;;;;;0.60;0.60;;;10.20;99.90;10.10;97354.00;;;;5086512;28;20227;-69
2021/10/07 10:07:52;;;;;;;0.40;0.40;;;10.20;99.90;10.20;97353.00;;;;5086908;28;20222;-70
2021/10/07 10:10:45;;;;;;;0.73;0.70;;;10.20;99.90;10.10;97351.00;;;;5086250;28;20218;-70
2021/10/07 10:13:34;;;;;;;0.83;0.40;;;10.20;99.90;10.10;97349.00;;;;5086582;28;20589;-69
2021/10/07 10:16:23;;;;;;;0.80;0.73;;;10.20;99.90;10.10;97349.00;;;;5085536;28;20207;-69
2021/10/07 10:19:14;;;;;;;0.63;0.63;;;10.20;99.90;10.10;97345.00;;;;5073936;28;20195;-70
2021/10/07 10:22:03;;;;;;;0.83;0.70;;;10.10;99.90;10.00;97336.00;;;;5079479;28;20220;-69
2021/10/07 10:24:53;;;;;;;0.40;0.40;;;10.10;99.90;10.10;97338.00;;;;5083854;28;20609;-69
2021/10/07 10:27:56;;;;;;;1.17;0.50;;;10.10;99.90;10.20;97333.00;;;;5084100;28;20214;-70
2021/10/07 10:30:46;;;;;;;1.40;0.57;;;10.20;99.90;10.20;97332.00;;;;5085292;28;20206;-69
2021/10/07 10:33:38;;;;;;;0.80;0.57;;;10.20;99.90;10.30;97327.00;;;;5083359;28;20272;-70
2021/10/07 10:36:32;;;;;;;0.50;0.40;;;10.20;99.90;10.20;97335.00;;;;5086502;28;20210;-69
2021/10/07 10:39:28;;;;;;;0.87;0.53;;;10.20;99.90;10.20;97337.00;;;;5086792;28;21105;-68
2021/10/07 10:42:26;;;;;;;0.37;0.37;;;10.30;99.90;10.30;97334.00;;;;5086591;28;20231;-69
2021/10/07 10:45:15;;;;;;;0.50;0.40;;;10.30;99.90;10.40;97334.00;;;;5085852;28;20288;-68
2021/10/07 10:48:05;;;;;;;0.40;0.40;;;10.30;99.90;10.20;97331.00;;;;5086187;28;20237;-68
2021/10/07 10:51:02;;;;;;;1.70;0.70;;;10.30;99.90;10.40;97332.00;;;;5084798;28;20203;-69
2021/10/07 10:53:58;;;;;;;1.30;0.60;;;10.40;99.90;10.40;97330.00;;;;5086030;28;20211;-68
2021/10/07 10:57:00;;;;;;;0.77;0.50;;;10.40;99.90;10.50;97332.00;;;;5086392;28;20199;-69
2021/10/07 11:00:06;;;;;;;2.93;0.70;;;10.40;99.90;10.30;97336.00;;;;5079175;28;20210;-69
2021/10/07 11:03:17;;;;;;;2.67;0.43;;;10.40;99.90;10.30;97329.00;;;;5081527;28;20593;-70
2021/10/07 11:06:09;;;;;;;1.13;0.40;;;10.40;99.90;10.30;97329.00;;;;5082881;28;20298;-69
2021/10/07 11:08:58;;;;;;;2.13;0.60;;;10.40;99.90;10.40;97330.00;;;;5085056;28;20222;-69
2021/10/07 11:11:46;;;;;;;0.60;0.60;;;10.40;99.90;10.40;97334.00;;;;5084671;28;20230;-69
2021/10/07 11:14:35;;;;;;;0.40;0.40;;;10.40;99.90;10.40;97327.00;;;;5082698;28;20195;-69
2021/10/07 11:17:30;;;;;;;0.50;0.50;;;10.40;99.90;10.40;97320.00;;;;5079598;28;20195;-69
2021/10/07 11:20:24;;;;;;;0.80;0.60;;;10.40;99.90;10.50;97323.00;;;;5076153;28;20585;-69
2021/10/07 11:23:15;;;;;;;0.53;0.40;;;10.50;99.90;10.60;97322.00;;;;5088442;28;20937;-70
2021/10/07 11:26:05;;;;;;;1.07;0.57;;;10.50;99.90;10.50;97327.00;;;;5087246;28;20226;-69
2021/10/07 11:28:54;;;;;;;0.93;0.73;;;10.50;99.90;10.70;97328.00;;;;5079482;28;20207;-69
2021/10/07 11:31:46;;;;;;;1.00;0.80;;;10.60;99.90;10.70;97325.00;;;;5081685;28;20222;-69
2021/10/07 11:34:36;;;;;;;2.40;0.67;;;10.60;99.90;10.70;97320.00;;;;5076190;28;20693;-69
2021/10/07 11:37:25;;;;;;;0.57;0.57;;;10.70;99.90;10.70;97324.00;;;;5083032;28;20195;-69
2021/10/07 11:40:23;;;;;;;0.70;0.70;;;10.70;99.90;10.80;97330.00;;;;5088381;28;20217;-69
2021/10/07 11:43:16;;;;;;;0.67;0.60;;;10.70;99.90;10.80;97319.00;;;;5089080;28;20219;-68
2021/10/07 11:46:08;;;;;;;1.40;1.30;;;10.70;99.90;10.90;97326.00;;;;5088579;28;20219;-68
2021/10/07 11:48:58;;;;;;;0.70;0.70;;;10.80;99.90;10.90;97323.00;;;;5089294;28;20244;-69
2021/10/07 11:51:48;;;;;;;2.23;1.73;;;10.80;99.90;10.90;97321.00;;;;5087126;28;20231;-69
2021/10/07 11:54:38;;;;;;;0.93;0.50;;;10.90;99.90;10.90;97331.00;;;;5089205;28;20686;-69
2021/10/07 11:57:27;;;;;;;0.80;0.80;;;10.90;99.90;11.00;97332.00;;;;5088775;28;20200;-70
2021/10/07 12:00:38;;;;;;;0.50;0.50;;;11.00;99.90;11.10;97331.00;;;;5087817;28;20912;-70
2021/10/07 12:03:29;;;;;;;0.73;0.57;;;11.00;99.90;11.10;97330.00;;;;5087721;28;20689;-71
2021/10/07 12:06:18;;;;;;;1.63;0.57;;;11.00;99.90;11.20;97335.00;;;;5086977;28;20223;-70
2021/10/07 12:09:14;;;;;;;0.50;0.40;;;11.10;99.90;11.10;97340.00;;;;5082409;28;20195;-70
2021/10/07 12:12:05;;;;;;;2.00;0.50;;;11.10;99.90;11.10;97331.00;;;;5080322;28;20230;-70
2021/10/07 12:14:55;;;;;;;0.40;0.40;;;11.10;99.90;11.00;97330.00;;;;5075560;28;20204;-70
2021/10/07 12:17:44;;;;;;;0.47;0.40;;;11.10;99.90;11.10;97334.00;;;;5083691;28;20200;-69
2021/10/07 12:20:34;;;;;;;0.60;0.60;;;11.10;99.90;11.10;97344.00;;;;5075315;28;20697;-72
2021/10/07 12:23:23;;;;;;;0.60;0.60;;;11.10;99.90;11.10;97331.00;;;;5085096;28;20214;-71
2021/10/07 12:26:34;;;;;;;1.30;1.03;;;11.10;99.90;10.90;97343.00;;;;5087064;28;20586;-71
2021/10/07 12:29:26;;;;;;;0.53;0.53;;;11.10;99.90;10.90;97354.00;;;;5086735;28;20780;-70
2021/10/07 12:32:16;;;;;;;0.67;0.67;;;11.00;99.90;10.90;97343.00;;;;5086533;28;20226;-69
2021/10/07 12:35:06;;;;;;;0.60;0.50;;;11.00;99.90;10.90;97347.00;;;;5077245;28;20207;-69
2021/10/07 12:37:58;;;;;;;0.77;0.50;;;9.40;99.90;10.80;97346.00;;;;5083924;28;20203;-69
2021/10/07 12:40:53;;;;;;;1.03;0.47;;;10.90;99.90;10.80;97361.00;;;;5082628;28;20207;-69
2021/10/07 12:43:57;;;;;;;0.30;0.30;;;10.90;99.90;10.90;97357.00;;;;5086853;28;20222;-69
2021/10/07 12:46:50;;;;;;;0.40;0.40;;;10.80;99.90;11.00;97359.00;;;;5075593;28;20253;-67
2021/10/07 12:49:41;;;;;;;1.23;0.43;;;10.90;99.90;11.00;97363.00;;;;5083144;28;20210;-67
2021/10/07 12:52:38;;;;;;;0.60;0.40;;;10.90;99.90;10.80;97359.00;;;;5083798;28;20521;-67